Etusivu
METAR-TAF:

METAR-TAF

Lentoasemat :

Aurora State Airport

Aurora, Oregon, Yhdysvallat

Leveyspiiri: 45-14-56N, Pituuspiiri: 122-45-56W, korkeus merenpinnasta: 59 m

Tämänhetkinen sää

Tämä raportti tehtiin 1 tunti ja 6 minuuttia sitten, kello 21.53 UTC
Tuuli 7 kn idästä/koillisesta
Lämpötila 15°C
Kosteus 51%
Ilmanpaine 1028 hPa
Näkyvyys: 16.1 km
selkeää

METAR: KUAO 272153Z 07007KT 10SM CLR 15/05 A3035 RMK AO2 SLP278 T01500050

Aika: 15:59 (22:59 UTC)

Sääennuste

Tämä raportti tehtiin 5 tuntia ja 5 minuuttia sitten, kello 17.54 UTC
Ennuste voimassa 27. päivästä klo 18 UTC - 28. päivään klo 18 UTC
Tuuli 4 kn eri suunnista
Näkyvyys: 10 km
selkeää
From 27. päivästä klo 1900 UTC
Tuuli kn pohjoisesta
Näkyvyys: 10 km
Hajonneita pilviä 3500 ft:n korkeudessa
From 28. päivästä klo 1300 UTC
Tuuli kn pohjoisesta
Näkyvyys: 10 km
Pilvistä 3000 ft:n korkeudessa

TAF: KUAO 271754Z 2718/2818 VRB04KT P6SM SKC FM271900 00000KT P6SM BKN035 FM281300 00000KT P6SM OVC030

Säähavainnot ja -ennusteet yli 4000 lentoasemalta (METAR- ja TAF-raportit).

Käytössä olevat sääasemat on merkitty karttaan keltaisilla ja punaisilla pisteillä.

Aseta hiiri pisteen päälle nähdäksesi sääaseman nimen.

Klikkaa sitten nähdäksesi säähavainnot ja -ennusteet.

Kartan vaihtaminen: klikkaa mustalla rastilla varustettuja vihreitä pisteitä, niin voit zoomata sisään; viivalla varustettua vihreää pistettä, niin voit zoomata ulos tai vihreitä nuolia, niin pääset viereisille kartoille.


METAR-TAF: